Time;durP1;ratioP1;P1;durP2;ratioP2;P2;SDS_P1;SDS_P2;PMS_P1;PMS_P2;Temp;Humidity;BMP_temperature;BMP_pressure;BME280_temperature;BME280_humidity;BME280_pressure;Samples;Min_cycle;Max_cycle;Signal;HPM_P1;HPM_P2
2022/06/22 00:02:07;;;;;;;23.15;12.63;;;;;;;20.39;100.00;97005.69;5015453;28;20057;-82
2022/06/22 00:04:46;;;;;;;22.08;12.63;;;;;;;20.11;100.00;97009.69;4999664;28;20105;-82
2022/06/22 00:07:16;;;;;;;;;;;;;;;20.13;100.00;97002.22;5011722;28;20033;-81
2022/06/22 00:09:42;;;;;;;21.13;12.43;;;;;;;19.99;100.00;97003.69;5013909;28;19922;-82
2022/06/22 00:12:21;;;;;;;19.90;13.38;;;;;;;20.03;100.00;97009.66;5013931;28;20484;-82
2022/06/22 00:14:49;;;;;;;20.55;12.80;;;;;;;20.04;100.00;96989.63;5010491;28;20032;-81
2022/06/22 00:18:03;;;;;;;18.85;14.73;;;;;;;20.02;100.00;96978.13;4996254;28;20400;-81
2022/06/22 00:20:31;;;;;;;24.00;13.50;;;;;;;20.10;100.00;97007.97;4973818;28;20046;-82
2022/06/22 00:23:28;;;;;;;23.88;14.82;;;;;;;20.10;100.00;97009.84;5014086;28;20026;-82
2022/06/22 00:25:58;;;;;;;24.13;13.73;;;;;;;20.00;100.00;96999.97;4974275;28;20036;-82
2022/06/22 00:28:33;;;;;;;20.35;13.02;;;;;;;19.97;100.00;97011.19;4997384;28;20102;-82
2022/06/22 00:31:12;;;;;;;21.88;14.02;;;;;;;19.90;100.00;96996.56;5028776;28;20022;-82
2022/06/22 00:33:38;;;;;;;25.42;13.75;;;;;;;19.93;100.00;96993.50;5023192;28;20069;-82
2022/06/22 00:36:19;;;;;;;22.13;12.50;;;;;;;19.91;100.00;96976.56;5010206;28;20026;-81
2022/06/22 00:38:45;;;;;;;20.60;13.23;;;;;;;19.97;100.00;96988.59;4999373;28;20052;-82
2022/06/22 00:41:21;;;;;;;18.42;13.02;;;;;;;19.82;100.00;96991.13;5013358;28;20039;-82
2022/06/22 00:43:47;;;;;;;21.65;13.35;;;;;;;19.83;100.00;96998.25;4980621;28;20058;-82
2022/06/22 00:46:19;;;;;;;21.20;12.30;;;;;;;19.79;100.00;96986.03;5013043;28;20105;-82
2022/06/22 00:48:47;;;;;;;18.98;11.55;;;;;;;19.85;100.00;96981.78;5012943;28;20050;-82
2022/06/22 00:51:16;;;;;;;22.88;12.85;;;;;;;19.75;100.00;96990.06;4996501;28;20033;-81
2022/06/22 00:54:03;;;;;;;18.50;11.30;;;;;;;19.68;100.00;96994.50;4996427;28;20536;-81
2022/06/22 00:56:43;;;;;;;18.85;11.25;;;;;;;19.66;100.00;96988.34;4996164;28;20472;-82
2022/06/22 00:59:33;;;;;;;15.73;11.82;;;;;;;19.67;100.00;96990.06;4996574;28;20152;-81
2022/06/22 01:02:08;;;;;;;14.50;11.25;;;;;;;19.59;100.00;96992.75;4996487;28;20037;-81
2022/06/22 01:04:57;;;;;;;20.05;11.10;;;;;;;19.55;100.00;96996.81;4996628;28;20060;-81
2022/06/22 01:07:34;;;;;;;22.13;11.63;;;;;;;19.54;100.00;96999.66;4996590;28;20089;-81
2022/06/22 01:10:05;;;;;;;15.13;11.57;;;;;;;19.49;100.00;96992.03;5012717;28;20029;-82
2022/06/22 01:12:36;;;;;;;21.23;11.65;;;;;;;19.59;100.00;97000.06;5012208;28;20382;-82
2022/06/22 01:15:05;;;;;;;19.98;11.77;;;;;;;19.57;100.00;97002.91;5012601;28;20026;-81
2022/06/22 01:18:07;;;;;;;19.98;12.55;;;;;;;19.59;100.00;96998.19;5012378;28;20450;-82
2022/06/22 01:21:05;;;;;;;20.98;12.43;;;;;;;19.62;100.00;97003.28;5012097;28;20022;-82
2022/06/22 01:23:49;;;;;;;20.30;12.57;;;;;;;19.61;100.00;97000.72;5012684;28;20037;-82
2022/06/22 01:26:26;;;;;;;20.73;12.57;;;;;;;19.57;100.00;96994.78;5013552;28;20524;-81
2022/06/22 01:28:59;;;;;;;19.30;12.85;;;;;;;19.72;100.00;96997.72;5004630;28;20957;-82
2022/06/22 01:31:25;;;;;;;;;;;;;;;19.77;100.00;96996.22;5012826;28;20026;-83
2022/06/22 01:33:52;;;;;;;20.98;10.45;;;;;;;19.59;100.00;96984.63;5012522;28;20051;-83
2022/06/22 01:36:32;;;;;;;19.88;10.82;;;;;;;19.51;100.00;96972.88;5029020;28;20454;-83
2022/06/22 01:38:58;;;;;;;15.40;10.00;;;;;;;19.47;100.00;96978.63;5029047;28;20029;-83
2022/06/22 01:41:35;;;;;;;13.15;9.98;;;;;;;19.51;100.00;96984.56;5009746;28;20025;-83
2022/06/22 01:44:09;;;;;;;16.85;10.60;;;;;;;19.42;100.00;96977.41;5013415;28;20029;-83
2022/06/22 01:46:59;;;;;;;24.20;10.32;;;;;;;19.46;100.00;96965.25;5012252;28;20030;-82
2022/06/22 01:49:46;;;;;;;13.43;9.93;;;;;;;19.48;100.00;96968.63;4996538;28;20050;-83
2022/06/22 01:52:30;;;;;;;20.52;11.60;;;;;;;19.55;100.00;96979.69;5012495;28;20104;-83
2022/06/22 01:55:02;;;;;;;26.95;11.85;;;;;;;19.59;100.00;96984.63;5012120;28;20423;-83
2022/06/22 01:57:35;;;;;;;20.03;11.77;;;;;;;19.54;100.00;96984.25;4995863;28;20409;-83
2022/06/22 02:00:11;;;;;;;23.33;12.80;;;;;;;19.55;100.00;96982.38;5012463;28;20281;-83
2022/06/22 02:02:53;;;;;;;20.30;12.77;;;;;;;19.33;100.00;96972.94;4994667;28;20041;-83
2022/06/22 02:05:41;;;;;;;20.63;11.75;;;;;;;19.25;100.00;96983.78;5011847;28;20065;-83
2022/06/22 02:08:18;;;;;;;30.67;12.73;;;;;;;19.10;100.00;96982.69;4998388;28;20145;-83
2022/06/22 02:10:44;;;;;;;22.98;12.95;;;;;;;19.12;100.00;96986.06;4995596;28;20030;-83
2022/06/22 02:13:21;;;;;;;20.25;13.75;;;;;;;19.07;100.00;96985.72;5011533;28;20025;-83
2022/06/22 02:16:00;;;;;;;27.17;13.15;;;;;;;18.95;100.00;96980.53;5011710;28;20481;-83
2022/06/22 02:18:44;;;;;;;24.17;12.90;;;;;;;18.92;100.00;96983.59;5011960;28;20029;-84
2022/06/22 02:21:43;;;;;;;21.85;13.43;;;;;;;18.86;100.00;96980.66;5011438;28;20488;-84
2022/06/22 02:24:28;;;;;;;26.73;14.98;;;;;;;18.88;100.00;96963.25;4996094;28;20025;-84
2022/06/22 02:27:10;;;;;;;23.33;14.05;;;;;;;18.85;100.00;96973.56;5011968;28;20037;-83
2022/06/22 02:29:48;;;;;;;24.70;15.27;;;;;;;18.79;100.00;96966.06;4995659;28;20037;-83
2022/06/22 02:32:24;;;;;;;28.08;15.45;;;;;;;18.75;100.00;96970.94;5004046;28;20413;-83
2022/06/22 02:34:52;;;;;;;30.67;14.52;;;;;;;18.71;100.00;96974.97;5011980;28;20037;-82
2022/06/22 02:37:20;;;;;;;25.70;13.85;;;;;;;18.75;100.00;96992.63;5011805;28;20089;-83
2022/06/22 02:39:48;;;;;;;23.52;14.50;;;;;;;18.68;100.00;96990.69;5010566;28;20064;-83
2022/06/22 02:44:59;;;;;;;26.35;14.30;;;;;;;18.73;100.00;97001.94;5013149;28;20041;-83
2022/06/22 02:47:31;;;;;;;28.75;15.90;;;;;;;18.75;100.00;97008.03;5028372;28;20105;-83
2022/06/22 02:50:06;;;;;;;;;;;;;;;18.77;100.00;97012.28;5011880;28;20433;-83
2022/06/22 02:52:40;;;;;;;25.75;14.77;;;;;;;18.70;100.00;97005.78;5013167;28;19918;-83
2022/06/22 02:55:11;;;;;;;26.42;14.52;;;;;;;18.62;100.00;97003.03;5012925;28;20026;-83
2022/06/22 02:57:52;;;;;;;25.42;14.20;;;;;;;18.73;100.00;97019.03;5031232;28;20485;-83
2022/06/22 03:00:20;;;;;;;18.77;13.68;;;;;;;18.72;100.00;97003.78;5029125;28;20034;-83
2022/06/22 03:02:48;;;;;;;29.13;17.27;;;;;;;18.68;100.00;96986.13;5031701;28;20045;-83
2022/06/22 03:05:14;;;;;;;23.77;13.27;;;;;;;18.79;100.00;96999.44;5015310;28;20025;-83
2022/06/22 03:07:42;;;;;;;37.65;20.80;;;;;;;18.75;100.00;96992.63;5009087;28;20097;-82
2022/06/22 03:10:20;;;;;;;21.85;12.75;;;;;;;18.71;100.00;96996.66;5006322;28;20511;-83
2022/06/22 03:12:45;;;;;;;21.25;12.63;;;;;;;18.56;100.00;96967.59;4997650;28;20164;-82
2022/06/22 03:15:13;;;;;;;22.80;13.05;;;;;;;18.62;100.00;96981.34;5031144;28;20416;-82
2022/06/22 03:17:39;;;;;;;17.88;12.57;;;;;;;18.57;100.00;96986.41;5031117;28;20026;-82
2022/06/22 03:20:12;;;;;;;27.27;12.10;;;;;;;18.53;100.00;96982.31;5014981;28;20058;-83
2022/06/22 03:22:49;;;;;;;22.85;13.55;;;;;;;18.60;100.00;96999.63;5014724;28;20061;-83
2022/06/22 03:25:44;;;;;;;33.90;17.30;;;;;;;18.64;100.00;96989.34;4995337;28;20030;-83
2022/06/22 03:28:14;;;;;;;42.45;20.13;;;;;;;18.66;100.00;96982.75;5003694;28;20039;-82
2022/06/22 03:30:51;;;;;;;30.00;13.88;;;;;;;18.71;100.00;96984.97;4995568;28;20144;-83
2022/06/22 03:33:26;;;;;;;25.02;13.15;;;;;;;18.60;100.00;96966.28;4976084;28;20041;-82
2022/06/22 03:35:56;;;;;;;22.15;14.18;;;;;;;18.50;100.00;96985.34;4998340;28;20531;-83
2022/06/22 03:38:26;;;;;;;28.42;15.45;;;;;;;18.65;100.00;96996.44;4998746;28;20094;-83
2022/06/22 03:41:07;;;;;;;29.88;13.82;;;;;;;18.67;100.00;96999.88;5005914;28;20029;-83
2022/06/22 03:43:48;;;;;;;26.20;15.13;;;;;;;18.81;100.00;96992.00;5014289;28;20503;-83
2022/06/22 03:46:30;;;;;;;24.38;16.52;;;;;;;18.91;100.00;96991.88;5005956;28;20080;-80
2022/06/22 03:49:22;;;;;;;40.00;17.05;;;;;;;18.95;100.00;96994.09;4996270;28;20473;-79
2022/06/22 03:52:07;;;;;;;36.10;16.20;;;;;;;19.14;100.00;96992.16;5025532;28;20124;-78
2022/06/22 03:54:48;;;;;;;21.13;14.85;;;;;;;19.37;100.00;97006.88;5024120;28;20041;-78
2022/06/22 03:57:18;;;;;;;41.38;18.60;;;;;;;19.64;100.00;96998.53;5028976;28;20048;-79
2022/06/22 03:59:45;;;;;;;23.88;14.63;;;;;;;19.94;100.00;96997.09;5012831;28;20345;-80
2022/06/22 04:02:11;;;;;;;28.92;15.05;;;;;;;20.19;100.00;97015.13;5029042;28;20041;-80
2022/06/22 04:04:37;;;;;;;30.27;15.80;;;;;;;20.07;100.00;97005.59;5003529;28;20480;-79
2022/06/22 04:07:03;;;;;;;26.88;15.27;;;;;;;19.99;100.00;97002.88;5009715;28;20026;-80
2022/06/22 04:09:30;;;;;;;27.33;15.07;;;;;;;20.03;100.00;96985.22;5028636;28;20517;-81
2022/06/22 04:12:07;;;;;;;25.35;15.65;;;;;;;20.14;100.00;97012.06;5012556;28;20182;-81
2022/06/22 04:14:49;;;;;;;26.35;15.25;;;;;;;20.16;100.00;97025.47;5029388;28;20026;-82
2022/06/22 04:17:34;;;;;;;53.05;30.65;;;;;;;20.16;100.00;97001.03;5012957;28;20432;-81
2022/06/22 04:20:22;;;;;;;29.27;15.00;;;;;;;20.30;100.00;97014.00;5012380;28;20033;-82
2022/06/22 04:22:53;;;;;;;28.77;15.98;;;;;;;20.45;100.00;97031.31;5012807;28;20022;-82
2022/06/22 04:25:26;;;;;;;29.23;15.30;;;;;;;20.64;100.00;97008.41;5012651;28;20037;-82
2022/06/22 04:27:53;;;;;;;30.13;14.23;;;;;;;20.97;100.00;97002.75;4985941;28;20525;-82
2022/06/22 04:30:28;;;;;;;23.33;13.90;;;;;;;21.12;100.00;97021.09;4976262;28;20085;-81
2022/06/22 04:33:19;;;;;;;28.23;13.82;;;;;;;20.98;100.00;97019.91;4992724;28;20192;-80
2022/06/22 04:35:51;;;;;;;24.77;14.18;;;;;;;20.90;100.00;97012.63;4992519;28;20490;-79
2022/06/22 04:38:29;;;;;;;26.15;13.90;;;;;;;21.08;100.00;97009.69;4975874;28;20458;-80
2022/06/22 04:41:04;;;;;;;29.52;13.82;;;;;;;21.05;100.00;97008.16;4992843;28;20042;-79
2022/06/22 04:43:29;;;;;;;21.33;13.80;;;;;;;21.07;100.00;97019.72;4985884;28;20026;-80
2022/06/22 04:45:56;;;;;;;31.48;14.80;;;;;;;21.26;100.00;97021.22;4976101;28;20165;-78
2022/06/22 04:48:24;;;;;;;22.98;13.30;;;;;;;21.43;100.00;97030.22;4968485;28;20035;-77
2022/06/22 04:50:53;;;;;;;26.00;13.88;;;;;;;21.54;100.00;97040.72;4975460;28;20486;-77
2022/06/22 04:53:35;;;;;;;18.60;12.15;;;;;;;22.16;100.00;97036.19;4974611;28;20022;-76
2022/06/22 04:56:08;;;;;;;24.08;12.02;;;;;;;22.64;100.00;97037.75;4991448;28;20061;-78
2022/06/22 04:58:48;;;;;;;29.38;13.00;;;;;;;23.85;95.89;97052.94;4974917;28;20030;-76
2022/06/22 05:01:21;;;;;;;25.13;13.05;;;;;;;25.03;84.64;97057.06;4991442;28;20406;-76
2022/06/22 05:03:47;;;;;;;33.13;12.68;;;;;;;24.97;83.88;97048.78;4970029;28;20026;-77
2022/06/22 05:06:21;;;;;;;18.80;10.50;;;;;;;25.05;81.39;97049.50;4991364;28;20018;-76
2022/06/22 05:09:09;;;;;;;18.98;10.32;;;;;;;24.16;84.78;97042.66;4991205;28;20447;-76
2022/06/22 05:11:42;;;;;;;27.98;11.48;;;;;;;24.52;84.73;97042.63;4975070;28;20029;-77
2022/06/22 05:14:20;;;;;;;15.95;10.85;;;;;;;25.34;80.03;97049.31;4974796;28;20117;-76
2022/06/22 05:16:59;;;;;;;23.75;11.25;;;;;;;24.92;81.53;97043.06;4974500;28;20481;-76
2022/06/22 05:19:49;;;;;;;32.65;11.90;;;;;;;24.42;83.57;97063.16;4974809;28;20019;-76
2022/06/22 05:22:16;;;;;;;23.70;12.68;;;;;;;24.44;84.68;97059.19;4973757;28;20057;-77
2022/06/22 05:24:45;;;;;;;23.70;12.35;;;;;;;25.08;82.53;97060.06;4974713;28;20049;-75
2022/06/22 05:27:14;;;;;;;26.73;11.93;;;;;;;26.38;75.57;97059.22;4977421;28;20050;-76
2022/06/22 05:29:44;;;;;;;32.25;11.20;;;;;;;26.15;75.68;97066.94;4974932;28;20058;-77
2022/06/22 05:32:18;;;;;;;17.85;11.43;;;;;;;27.10;72.30;97058.53;4990736;28;20026;-78
2022/06/22 05:34:46;;;;;;;29.55;12.50;;;;;;;28.41;66.84;97049.25;4967099;28;20037;-78
2022/06/22 05:37:20;;;;;;;23.42;12.02;;;;;;;29.41;62.38;97051.19;5007194;28;20126;-77
2022/06/22 05:39:46;;;;;;;22.10;11.30;;;;;;;29.56;60.51;97046.19;4989872;28;20033;-77
2022/06/22 05:42:14;;;;;;;26.67;11.07;;;;;;;30.18;57.92;97050.59;4990902;28;20030;-77
2022/06/22 05:44:40;;;;;;;23.35;11.90;;;;;;;30.47;57.07;97043.50;4990539;28;20530;-78
2022/06/22 05:47:06;;;;;;;17.00;10.77;;;;;;;32.10;52.55;97025.34;4990842;28;20062;-76
2022/06/22 05:49:44;;;;;;;24.77;10.05;;;;;;;33.12;49.12;97026.34;4990608;28;20124;-76
2022/06/22 05:52:32;;;;;;;30.80;11.30;;;;;;;33.50;47.68;97033.94;4990583;28;20377;-76
2022/06/22 05:55:03;;;;;;;14.93;9.60;;;;;;;33.38;46.71;97038.72;4980557;28;20056;-76
2022/06/22 05:57:50;;;;;;;15.40;8.95;;;;;;;34.20;44.74;97032.28;4990959;28;20014;-76
2022/06/22 06:00:29;;;;;;;20.70;10.38;;;;;;;33.38;45.47;97035.97;4982259;28;20042;-76
2022/06/22 06:02:57;;;;;;;20.80;8.98;;;;;;;35.02;43.19;97034.97;4990344;28;20038;-78
2022/06/22 06:05:27;;;;;;;20.05;10.35;;;;;;;35.81;41.91;97030.44;4974167;28;20410;-78
2022/06/22 06:07:55;;;;;;;19.38;9.60;;;;;;;36.21;40.76;97034.63;4973804;28;20025;-75
2022/06/22 06:10:33;;;;;;;25.38;10.10;;;;;;;33.99;43.57;97033.06;4990384;28;20038;-76
2022/06/22 06:13:18;;;;;;;15.65;9.48;;;;;;;35.00;42.46;97017.72;4990455;28;20030;-75
2022/06/22 06:18:33;;;;;;;19.58;9.80;;;;;;;34.77;42.22;97018.84;4991007;28;20054;-77
2022/06/22 06:21:06;;;;;;;16.38;9.43;;;;;;;34.19;43.00;97021.41;4965411;28;20502;-76
2022/06/22 06:23:37;;;;;;;18.38;9.65;;;;;;;32.93;45.69;97030.38;5006919;28;20037;-76
2022/06/22 06:29:01;;;;;;;18.00;10.70;;;;;;;32.29;47.92;97043.50;4989449;28;20528;-76
2022/06/22 06:31:46;;;;;;;23.50;10.05;;;;;;;32.19;49.39;97037.72;4995523;28;20450;-76
2022/06/22 06:34:19;;;;;;;21.55;9.95;;;;;;;33.20;47.40;97034.25;4990091;28;20030;-76
2022/06/22 06:37:40;;;;;;;25.55;9.50;;;;;;;34.70;44.15;97018.19;4994453;28;20104;-76
2022/06/22 06:40:11;;;;;;;29.88;9.82;;;;;;;35.22;43.23;97014.91;4949501;29;20056;-76
2022/06/22 06:42:52;;;;;;;17.88;9.00;;;;;;;35.19;42.61;97021.81;4974304;28;20077;-76
2022/06/22 06:45:22;;;;;;;17.55;9.57;;;;;;;34.40;43.34;97023.38;5010794;28;20031;-76
2022/06/22 06:47:51;;;;;;;19.77;8.52;;;;;;;33.61;44.64;97031.09;5007478;28;20042;-77
2022/06/22 06:50:22;;;;;;;15.20;8.95;;;;;;;33.89;44.39;97032.91;5010330;28;20038;-76
2022/06/22 06:53:20;;;;;;;16.90;9.15;;;;;;;35.25;42.29;97015.22;4977556;28;20037;-76
2022/06/22 06:55:51;;;;;;;16.17;10.02;;;;;;;34.75;42.10;97014.66;5009818;28;20093;-76
2022/06/22 06:58:32;;;;;;;;;;;;;;;34.42;42.34;97015.63;4995306;28;20508;-76
2022/06/22 07:00:58;;;;;;;15.77;8.75;;;;;;;36.52;39.88;97010.53;4993736;28;19913;-77
2022/06/22 07:03:29;;;;;;;20.70;9.05;;;;;;;34.96;40.64;96999.88;4995577;28;20424;-76
2022/06/22 07:05:54;;;;;;;20.98;8.55;;;;;;;36.52;38.79;96991.84;5009982;28;20533;-76
2022/06/22 07:08:24;;;;;;;20.23;9.70;;;;;;;36.94;37.72;97000.09;5010202;28;20058;-77
2022/06/22 07:10:58;;;;;;;20.15;9.85;;;;;;;37.18;37.30;96994.84;4994294;28;20082;-77
2022/06/22 07:13:38;;;;;;;12.50;9.13;;;;;;;36.27;38.07;97005.69;5009741;28;20481;-77
2022/06/22 07:16:10;;;;;;;52.63;25.52;;;;;;;34.58;41.13;97009.13;5008610;28;20590;-77
2022/06/22 07:19:00;;;;;;;16.88;9.50;;;;;;;35.82;40.06;97007.06;4993581;28;20032;-77
2022/06/22 07:21:41;;;;;;;19.65;10.23;;;;;;;37.02;37.03;96999.56;4993310;28;20034;-77
2022/06/22 07:24:30;;;;;;;19.98;7.45;;;;;;;37.57;36.03;96992.34;5008411;28;20023;-78
2022/06/22 07:27:27;;;;;;;20.45;7.05;;;;;;;38.94;33.40;96986.13;5012107;28;20026;-77
2022/06/22 07:30:19;;;;;;;15.38;6.80;;;;;;;39.75;32.30;96988.31;5013004;28;20033;-78
2022/06/22 07:33:19;;;;;;;21.48;7.80;;;;;;;38.60;34.22;96993.56;5012579;28;20026;-77
2022/06/22 07:36:04;;;;;;;20.65;8.18;;;;;;;36.29;38.29;97006.25;4981844;28;20061;-77
2022/06/22 07:38:29;;;;;;;20.55;7.47;;;;;;;37.40;35.04;96989.84;5010301;28;20455;-77
2022/06/22 07:43:39;;;;;;;22.35;7.65;;;;;;;36.12;37.14;96992.50;5014172;28;20512;-77
2022/06/22 07:46:08;;;;;;;17.27;8.20;;;;;;;37.19;35.69;96988.16;5013162;28;20057;-78
2022/06/22 07:48:38;;;;;;;31.75;8.68;;;;;;;36.72;37.77;97002.25;5012286;28;20037;-77
2022/06/22 07:51:05;;;;;;;20.45;7.80;;;;;;;35.31;40.79;97018.88;5012635;28;20033;-77
2022/06/22 07:53:37;;;;;;;23.77;8.55;;;;;;;34.18;42.48;97034.47;5012549;28;20030;-78
2022/06/22 07:56:12;;;;;;;16.55;7.95;;;;;;;32.21;47.59;97052.16;4993087;28;20030;-77
2022/06/22 07:59:09;;;;;;;17.70;8.32;;;;;;;30.67;51.59;97057.06;5012032;28;20481;-78
2022/06/22 08:01:38;;;;;;;14.98;8.48;;;;;;;30.85;51.70;97062.53;4996156;28;20040;-77
2022/06/22 08:04:08;;;;;;;12.48;8.88;;;;;;;30.22;52.62;97065.66;4996198;28;20026;-78
2022/06/22 08:06:39;;;;;;;20.30;9.00;;;;;;;30.29;53.68;97065.56;4996199;28;20374;-78
2022/06/22 08:09:13;;;;;;;12.02;8.65;;;;;;;30.29;53.14;97065.56;4996087;28;20054;-77
2022/06/22 08:11:42;;;;;;;16.23;8.30;;;;;;;30.86;52.22;97053.13;5012101;28;20496;-78
2022/06/22 08:14:22;;;;;;;16.88;8.82;;;;;;;30.42;52.69;97054.41;4996067;28;20443;-78
2022/06/22 08:17:00;;;;;;;16.08;8.63;;;;;;;30.79;52.55;97053.25;4995645;28;20087;-77
2022/06/22 08:19:30;;;;;;;20.42;8.38;;;;;;;31.47;51.11;97045.38;5012081;28;20084;-77
2022/06/22 08:21:59;;;;;;;13.18;8.50;;;;;;;31.71;50.64;97046.28;5004768;28;20065;-78
2022/06/22 08:24:26;;;;;;;13.27;9.00;;;;;;;31.76;51.17;97051.09;4996160;28;20095;-77
2022/06/22 08:26:53;;;;;;;25.23;8.88;;;;;;;31.88;50.86;97038.09;4995667;28;20022;-78
2022/06/22 08:29:20;;;;;;;17.25;8.35;;;;;;;34.38;45.38;97025.56;5002203;28;20082;-77
2022/06/22 08:32:18;;;;;;;14.63;7.57;;;;;;;36.50;41.16;97021.94;4992099;28;20024;-77
2022/06/22 08:34:49;;;;;;;15.60;7.65;;;;;;;37.66;38.33;96997.09;4976520;28;20042;-77
2022/06/22 08:37:27;;;;;;;10.75;7.78;;;;;;;38.32;37.57;96999.78;4991177;28;20029;-77
2022/06/22 08:40:00;;;;;;;18.05;7.55;;;;;;;37.23;39.29;96994.84;5000714;28;20033;-77
2022/06/22 08:42:35;;;;;;;14.32;7.90;;;;;;;37.64;37.68;96993.75;5001043;28;20346;-76
2022/06/22 08:45:25;;;;;;;18.15;8.25;;;;;;;38.62;36.44;96976.47;5010081;28;20038;-77
2022/06/22 08:48:05;;;;;;;15.75;8.55;;;;;;;38.81;36.22;96974.72;4975619;28;20113;-77
2022/06/22 08:51:05;;;;;;;16.33;8.60;;;;;;;37.61;38.03;96980.38;4992129;28;20599;-77
2022/06/22 08:54:08;;;;;;;14.43;8.85;;;;;;;37.76;37.54;96974.75;4994323;28;20026;-77
2022/06/22 08:56:40;;;;;;;16.95;8.63;;;;;;;38.17;36.27;96977.47;5001450;28;20036;-77
2022/06/22 08:59:05;;;;;;;;;;;;;;;39.08;34.85;96972.31;4999422;28;20029;-78
2022/06/22 09:01:55;;;;;;;19.23;8.70;;;;;;;39.20;35.25;96966.34;4978954;28;19977;-78
2022/06/22 09:04:58;;;;;;;18.83;11.60;;;;;;;39.63;34.44;96968.22;5003788;28;20040;-78
2022/06/22 09:07:31;;;;;;;21.00;12.32;;;;;;;39.33;34.88;96951.72;4987995;28;20030;-77
2022/06/22 09:10:14;;;;;;;17.25;9.95;;;;;;;39.33;34.31;96943.31;4991123;28;20072;-77
2022/06/22 09:13:24;;;;;;;22.40;9.77;;;;;;;38.77;35.01;96952.06;4960087;28;20060;-77
2022/06/22 09:16:17;;;;;;;17.98;9.32;;;;;;;38.06;35.91;96957.09;4973825;28;20046;-77
2022/06/22 09:19:08;;;;;;;19.02;9.60;;;;;;;38.22;35.91;96957.88;4988692;28;20034;-77
2022/06/22 09:21:46;;;;;;;;;;;;;;;37.12;37.51;96949.38;4991462;28;20402;-76
2022/06/22 09:24:20;;;;;;;22.95;10.77;;;;;;;36.80;38.60;96935.63;4963903;28;19921;-76
2022/06/22 09:27:04;;;;;;;17.92;10.15;;;;;;;36.54;38.82;96939.47;4996721;28;20041;-77
2022/06/22 09:29:33;;;;;;;20.83;10.55;;;;;;;36.58;38.34;96932.22;4999742;28;20034;-77
2022/06/22 09:32:18;;;;;;;17.80;10.40;;;;;;;36.99;38.43;96949.06;5005649;28;20066;-77
2022/06/22 09:35:08;;;;;;;14.35;9.88;;;;;;;36.73;39.15;96974.06;4994906;28;20026;-77
2022/06/22 09:38:05;;;;;;;12.85;9.35;;;;;;;35.61;40.68;96973.78;4973769;28;20034;-77
2022/06/22 09:40:33;;;;;;;19.40;9.68;;;;;;;35.04;41.71;96977.13;4996492;28;20409;-77
2022/06/22 09:43:19;;;;;;;13.02;9.63;;;;;;;33.73;44.49;96990.22;4993247;28;20026;-78
2022/06/22 09:46:09;;;;;;;14.20;9.27;;;;;;;33.07;45.47;96991.00;4975194;28;20034;-78
2022/06/22 09:49:03;;;;;;;17.70;9.88;;;;;;;32.69;46.28;96982.56;4997066;28;20030;-77
2022/06/22 09:51:44;;;;;;;18.80;9.90;;;;;;;33.42;45.02;96976.09;4990477;28;20022;-77
2022/06/22 09:57:21;;;;;;;17.40;10.68;;;;;;;32.78;47.87;96986.59;4995236;28;20493;-77
2022/06/22 09:59:50;;;;;;;17.63;10.77;;;;;;;32.70;48.50;97000.88;5001898;28;20026;-77
2022/06/22 10:02:16;;;;;;;15.68;9.20;;;;;;;32.11;48.61;97005.75;4996593;28;20454;-77
2022/06/22 10:04:57;;;;;;;21.85;9.52;;;;;;;31.90;49.49;97005.50;4979967;28;20034;-78
2022/06/22 10:07:48;;;;;;;31.65;10.90;;;;;;;32.19;48.25;96999.81;4997312;28;20096;-79
2022/06/22 10:10:23;;;;;;;20.07;9.20;;;;;;;32.61;47.00;97003.19;5012200;28;20068;-78
2022/06/22 10:13:14;;;;;;;19.52;9.93;;;;;;;33.09;46.84;97010.22;4994872;28;20276;-79
2022/06/22 10:16:01;;;;;;;19.50;10.65;;;;;;;32.37;48.57;97029.25;4988442;28;20069;-78
2022/06/22 10:18:45;;;;;;;20.33;8.63;;;;;;;31.97;49.18;97039.41;4994759;28;20034;-77
2022/06/22 10:21:39;;;;;;;18.15;8.73;;;;;;;31.73;50.20;97040.50;4978911;28;20126;-77
2022/06/22 10:24:30;;;;;;;19.35;7.40;;;;;;;31.70;49.80;97039.06;4999021;28;20027;-77
2022/06/22 10:27:07;;;;;;;18.15;7.68;;;;;;;31.38;50.12;97034.94;5009242;28;20098;-77
2022/06/22 10:29:45;;;;;;;15.95;7.53;;;;;;;31.28;50.00;97032.75;5017877;28;20029;-79
2022/06/22 10:32:28;;;;;;;14.70;7.72;;;;;;;31.80;48.78;97035.69;5001589;28;20030;-77
2022/06/22 10:35:20;;;;;;;18.10;7.88;;;;;;;31.61;47.62;97041.34;5019765;28;20029;-78
2022/06/22 10:38:07;;;;;;;21.65;7.78;;;;;;;31.56;47.34;97032.91;4997984;28;20505;-76
2022/06/22 10:46:35;;;;;;;13.23;6.07;;;;;;;34.42;41.78;97020.34;5013748;28;20129;-79
2022/06/22 10:49:15;;;;;;;14.60;5.93;;;;;;;34.41;41.03;97019.50;5011167;28;20030;-77
2022/06/22 10:51:47;;;;;;;14.07;6.55;;;;;;;34.57;40.74;97029.72;5016717;28;20104;-78
2022/06/22 10:54:19;;;;;;;;;;;;;;;34.14;41.11;97036.09;5000783;28;20105;-80
2022/06/22 10:57:13;;;;;;;14.65;6.13;;;;;;;32.66;42.99;97036.53;5006454;28;19913;-79
2022/06/22 10:59:51;;;;;;;11.68;6.47;;;;;;;32.73;42.77;97014.22;5007698;28;20054;-80
2022/06/22 11:02:46;;;;;;;14.55;6.47;;;;;;;32.83;43.31;97008.00;5005433;28;20100;-78
2022/06/22 11:05:12;;;;;;;9.40;5.47;;;;;;;32.18;43.91;97003.66;5011789;28;20070;-79
2022/06/22 11:08:36;;;;;;;12.25;5.60;;;;;;;32.27;44.17;97001.34;4995997;28;20037;-78
2022/06/22 11:11:10;;;;;;;15.25;6.70;;;;;;;32.51;44.25;97004.88;4952159;29;20491;-79
2022/06/22 11:14:02;;;;;;;24.05;10.18;;;;;;;32.18;44.73;97013.88;4994955;28;20046;-79
2022/06/22 11:16:30;;;;;;;11.30;6.75;;;;;;;32.67;43.08;97012.47;4995505;28;20061;-79
2022/06/22 11:18:56;;;;;;;12.45;6.00;;;;;;;32.38;42.51;97007.94;5000383;28;20029;-79
2022/06/22 11:21:52;;;;;;;22.17;6.30;;;;;;;34.15;40.10;97011.91;5000044;28;20037;-80
2022/06/22 11:24:55;;;;;;;14.20;5.78;;;;;;;34.49;39.50;97007.06;5015419;28;20034;-80
2022/06/22 11:33:38;;;;;;;14.60;5.80;;;;;;;33.71;40.14;96997.13;5022620;28;20071;-79
2022/06/22 11:36:41;;;;;;;12.27;5.00;;;;;;;34.22;38.33;96990.34;5029730;28;20044;-79
2022/06/22 11:39:34;;;;;;;23.85;5.78;;;;;;;34.88;36.08;96968.91;5018213;28;20079;-79
2022/06/22 11:42:15;;;;;;;11.68;5.20;;;;;;;35.31;36.48;96980.75;5019831;28;20037;-79
2022/06/22 11:48:00;;;;;;;15.45;5.25;;;;;;;32.98;39.59;96969.50;5040274;28;20809;-79
2022/06/22 11:51:03;;;;;;;11.43;5.30;;;;;;;33.47;39.84;96974.22;5038250;28;20036;-78
2022/06/22 11:53:47;;;;;;;9.40;5.60;;;;;;;33.63;40.42;96976.19;4994775;28;20124;-79
2022/06/22 11:56:32;;;;;;;12.88;5.57;;;;;;;35.11;37.88;96968.59;5020560;28;20464;-79
2022/06/22 11:59:27;;;;;;;9.27;5.25;;;;;;;35.53;36.14;96950.03;5022937;28;20037;-78
2022/06/22 12:02:25;;;;;;;13.05;5.00;;;;;;;35.88;36.36;96958.63;5018300;28;20032;-81
2022/06/22 12:04:50;;;;;;;8.27;4.85;;;;;;;35.85;36.21;96964.75;5034383;28;21064;-79
2022/06/22 12:07:47;;;;;;;9.93;5.57;;;;;;;35.47;37.42;96965.00;5016110;28;20033;-81
2022/06/22 12:10:35;;;;;;;9.85;5.65;;;;;;;35.60;38.68;96972.94;5033140;28;20044;-84
2022/06/22 12:13:18;;;;;;;33.70;5.97;;;;;;;35.74;35.66;96963.03;5016704;28;20452;-86
2022/06/22 12:16:12;;;;;;;17.15;6.32;;;;;;;36.90;34.67;96960.75;5034647;28;20513;-85
2022/06/22 12:18:55;;;;;;;10.13;5.75;;;;;;;37.69;34.39;96962.19;5000794;28;20072;-86
2022/06/22 12:21:42;;;;;;;11.23;6.03;;;;;;;36.68;35.96;96971.28;5000273;28;20550;-84
2022/06/22 12:24:31;;;;;;;22.60;7.70;;;;;;;35.82;37.42;96970.84;5033681;28;20040;-87
2022/06/22 12:27:11;;;;;;;10.27;5.63;;;;;;;35.76;37.13;96968.31;5011240;28;20416;-86
2022/06/22 12:29:43;;;;;;;13.45;5.63;;;;;;;35.91;37.05;96962.81;5016041;28;20110;-87
2022/06/22 12:32:17;;;;;;;13.10;5.80;;;;;;;35.17;37.56;96967.53;5015079;28;20125;-86
2022/06/22 12:35:04;;;;;;;11.82;6.72;;;;;;;35.84;38.51;96968.63;5014056;28;20485;-86
2022/06/22 12:37:35;;;;;;;13.20;6.32;;;;;;;36.54;36.21;96964.56;5017858;28;20029;-87
2022/06/22 12:40:21;;;;;;;10.73;6.32;;;;;;;36.39;36.97;96958.91;5016132;28;20033;-87